Flight Track Log - Related Links

Times and Time Zones

All times are in EDT time to prevent confusion due to time zone crossing. See the DAL3643 flight status page for this flight to view local times or setup timezone preferences in your user account.

Time Position Orientation Groundspeed Altitude Reporting Facility
EDT Latitude Longitude Course Direction KTS MPH feet Rate Location/Type
Wed 06:11:02 PM 41.7667 -87.9000 242° Southwest 256 295 4,500  Level Chicago TRACON
Wed 06:12:00 PM 42.1990 -87.9129 344° North  Level FlightAware
Wed 06:12:08 PM 41.7500 -88.0000 257° West 267 307 7,300  Level Chicago TRACON
Wed 06:13:00 PM 42.3036 -87.9548 344° North  Level FlightAware
Wed 06:13:14 PM 41.7833 -88.1000 294° West 258 297 9,800  Level Chicago TRACON
Wed 06:14:00 PM 42.4083 -87.9967 344° North  Level FlightAware
Wed 06:14:09 PM 41.8500 -88.1000 360° North 323 372 10,400  Level Chicago TRACON
Wed 06:15:00 PM 42.5020 -88.0389 348° North  Level FlightAware
Wed 06:15:27 PM 41.9533 -88.0675 13° North 329 379 12,100  Level Chicago Center
Wed 06:16:29 PM 42.0467 -88.0594 North 336 387 13,400 1,258 Climbing Chicago Center
Wed 06:17:31 PM 42.1603 -88.0575 North 341 392 14,700 1,113 Climbing Chicago Center
Wed 06:18:33 PM 42.2572 -88.0606 359° North 350 403 15,700 919 Climbing Chicago Center
Wed 06:19:35 PM 42.3633 -88.0644 358° North 353 406 16,600 823 Climbing Chicago Center
Wed 06:20:37 PM 42.4603 -88.0394 11° North 366 421 17,400 581 Climbing Chicago Center
Wed 06:21:39 PM 42.5417 -87.9492 39° Northeast 376 433 17,800 528 Climbing Chicago Center
Wed 06:22:42 PM 42.6258 -87.8519 40° Northeast 389 448 18,500 576 Climbing Chicago Center
Wed 06:23:44 PM 42.7097 -87.7556 40° Northeast 394 453 19,000 242 Climbing Chicago Center
Wed 06:24:46 PM 42.8067 -87.6317 43° Northeast 408 470 19,000  Level Chicago Center
Wed 06:25:48 PM 42.8383 -87.4842 74° East 408 470 19,000 -48 Level Chicago Center
Wed 06:26:50 PM 42.8658 -87.3456 75° East 409 471 18,900  Descending Chicago Center
Wed 06:27:52 PM 42.8942 -87.1961 75° East 410 472 19,000 48 Climbing Chicago Center
Wed 06:28:54 PM 42.9272 -87.0167 76° East 408 470 19,000  Level Chicago Center
Wed 06:29:56 PM 42.9547 -86.8669 76° East 408 470 19,000  Level Chicago Center
Wed 06:30:58 PM 42.9761 -86.7158 79° East 408 470 19,000  Level Chicago Center
Wed 06:32:01 PM 42.9883 -86.5625 84° East 409 471 19,000  Level Chicago Center
Wed 06:33:03 PM 43.0008 -86.4106 84° East 404 465 19,000  Level Chicago Center
Wed 06:34:05 PM 43.0125 -86.2569 84° East 407 468 19,000  Level Chicago Center
Wed 06:35:07 PM 43.0267 -86.0742 84° East 407 468 19,000  Level Chicago Center
Wed 06:36:09 PM 43.0397 -85.9092 84° East 412 474 19,000  Level Chicago Center
Wed 06:37:11 PM 43.0494 -85.7714 84° East 420 483 19,000 -48 Level Chicago Center
Wed 06:38:13 PM 43.0636 -85.5853 84° East 415 478 18,900  Descending Chicago Center
Wed 06:39:15 PM 43.0756 -85.4308 84° East 411 473 19,000 48 Climbing Chicago Center
Wed 06:40:17 PM 43.0861 -85.2756 85° East 410 472 19,000 -48 Level Chicago Center
Wed 06:41:19 PM 43.0722 -85.1256 97° East 391 450 18,900  Descending Chicago Center
Wed 06:42:22 PM 43.0486 -84.9736 102° East 406 467 19,000 48 Climbing Chicago Center
Wed 06:43:24 PM 43.0194 -84.7933 102° East 405 466 19,000  Level Chicago Center
Wed 06:44:26 PM 42.9947 -84.6411 102° East 409 471 19,000 -194 Level Chicago Center
Wed 06:45:28 PM 42.9692 -84.4897 103° East 410 472 18,600 -1,016 Descending Chicago Center
Wed 06:46:30 PM 42.9439 -84.3428 103° East 403 464 16,900 -1,548 Descending Chicago Center
Wed 06:47:32 PM 42.9214 -84.2072 103° East 375 432 15,400 -1,446 Descending Chicago Center
Wed 06:48:22 PM 42.8950 -84.0750 105° East 378 435 14,200 -1,341 Descending Cleveland Center
Wed 06:48:57 PM 42.8847 -83.9978 100° East 371 427 13,500 -1,175 Descending Cleveland Center
Wed 06:49:59 PM 42.8575 -83.8661 106° East 363 418 12,300 -703 Descending Cleveland Center
Wed 06:51:05 PM 42.8275 -83.7369 108° East 299 344 12,000 -891 Descending Cleveland Center
Wed 06:52:07 PM 42.7519 -83.6850 153° Southeast 300 345 10,400 -1,314 Descending Cleveland Center
Wed 06:53:22 PM 42.6667 -83.6017 144° Southeast 287 330 9,000 -1,140 Descending Cleveland Center
Wed 06:54:08 PM 42.6306 -83.5436 130° Southeast 291 335 8,100 -1,009 Descending Cleveland Center
Wed 06:55:09 PM 42.5936 -83.4431 116° Southeast 264 304 7,200 -1,033 Descending Cleveland Center
Wed 06:56:10 PM 42.5706 -83.3547 109° East 232 267 6,000 -885 Descending Cleveland Center
Wed 06:57:11 PM 42.5475 -83.2719 111° Southeast 233 268 5,400 -984 Descending Cleveland Center
Wed 06:58:12 PM 42.4964 -83.2331 151° Southeast 232 267 4,000 -689 Descending Cleveland Center
Wed 06:59:13 PM 42.4339 -83.2333 180° South 233 268 4,000  Level Cleveland Center
Wed 07:00:14 PM 42.3750 -83.2533 194° South 200 230 4,000 -541 Level Cleveland Center
Wed 07:01:15 PM 42.3281 -83.2964 214° Southwest 194 223 2,900 -1,031 Descending Cleveland Center
Wed 07:02:22 PM 42.2772 -83.3306 206° Southwest 179 206 1,800 -891 Descending Cleveland Center
Wed 07:03:23 PM 42.2369 -83.3597 208° Southwest 145 167 1,000 -787 Descending Cleveland Center

Login

Don't have an account? Register now (free) for customized features, flight alerts, and more!